San Juan, PR (00933)

11:10 AM AST on September 04, 2015 (GMT -0400)
Condado, Calle Earle, At The Ocean | | Change Station
CLOSE
Current Station
Personal Weather Station
Location: San Juan, SAN JUAN
Elevation: 10 ft
Nearby Weather Stations

Elev 10 ft 18.46 °N, 66.07 °W | Updated 1 second ago

Scattered Clouds
Scattered Clouds
86.6 °F
Feels Like 99 °F
N
6.0
Wind Variable Wind from ENE
Gusts 6.0 mph

Today
High -- | Low -- °F
--% Chance of Precip.
Yesterday
High -- | Low -- °F
Precip. -- in
6:10 AM 6:36 PM
Waning Gibbous, 59% visible
Pressure 30.01 in
Visibility 10.0 miles
Clouds Few 2600 ft
Scattered Clouds 3500 ft
Scattered Clouds 7500 ft
Heat Index 99 °F
Dew Point 78 °F
Humidity 75%
Rainfall 0.00 in
Snow Depth Not available.
UV 9 out of 12
Pollen Not available.
Air Quality Not available.
Flu Activity Not available.
METAR TJSJ 041456Z 08009KT 10SM FEW026 SCT035 SCT075 31/25 A3001 RMK AO2 SLP162 T03110250 50002
Pressure 30.01 in
Visibility 10.0 miles
Clouds Few 2600 ft
Scattered Clouds 3500 ft
Scattered Clouds 7500 ft
Heat Index 99 °F
Dew Point 78 °F
Humidity 75%
Rainfall 0.00 in
Snow Depth Not available.
UV 9 out of 12
Pollen Not available.
Air Quality Not available.
Flu Activity Not available.
METAR TJSJ 041456Z 08009KT 10SM FEW026 SCT035 SCT075 31/25 A3001 RMK AO2 SLP162 T03110250 50002

10-Day Weather Forecast

×

Almanac

Astronomy

Sep. 04, 2015 Rise Set
Actual Time
Civil Twilight
Nautical Twilight
Astronomical Twilight
Moon
Length of Visible Light
Length of Day
Tomorrow will be .
, % of the Moon is Illuminated

Today's Extremes

State Highs State Lows

Community

WunderPhotos

Upload Photos

1,852,190 photos uploaded!

WunderBlogs® & News

Nearby

Air Quality

  Air Quality AQ Index Pollutant
Not available.

Snow Depth

Station Depth Elevation

Earthquake Activity

City Distance Mag. Time & Date
Minimum magnitude displayed is 2.5.

Coastal Water Temperatures

Place Temperature

Stations

Nearby Weather Stations

Station Location Temp. Windchill Dew Point Humidity Wind Precip. Elev Updated Type